Time;durP1;ratioP1;P1;durP2;ratioP2;P2;SDS_P1;SDS_P2;PMS_P1;PMS_P2;Temp;Humidity;BMP_temperature;BMP_pressure;BME280_temperature;BME280_humidity;BME280_pressure;Samples;Min_cycle;Max_cycle;Signal;HPM_P1;HPM_P2
2023/06/22 00:01:10;;;;;;;4.78;2.38;;;;;;;21.04;nan;96302.63;5098252;28;20232;-69
2023/06/22 00:03:36;;;;;;;3.83;2.20;;;;;;;20.91;nan;96292.22;5097142;28;20203;-72
2023/06/22 00:06:03;;;;;;;4.10;2.08;;;;;;;20.83;nan;96269.28;5098303;28;20226;-69
2023/06/22 00:08:29;;;;;;;3.30;1.75;;;;;;;20.67;nan;96268.41;5097879;28;20211;-69
2023/06/22 00:10:56;;;;;;;4.40;2.20;;;;;;;20.78;nan;96281.78;5097335;28;20229;-72
2023/06/22 00:13:23;;;;;;;3.83;2.00;;;;;;;20.81;nan;96275.94;5097886;28;21121;-72
2023/06/22 00:15:50;;;;;;;3.88;1.80;;;;;;;20.68;nan;96288.78;5098120;28;20200;-73
2023/06/22 00:18:16;;;;;;;6.13;3.15;;;;;;;20.75;nan;96282.28;5096644;28;20202;-70
2023/06/22 00:20:45;;;;;;;3.65;1.85;;;;;;;20.77;nan;96280.16;5097546;28;20208;-73
2023/06/22 00:23:17;;;;;;;5.38;2.92;;;;;;;20.78;nan;96275.63;5097398;28;21312;-72
2023/06/22 00:25:43;;;;;;;11.80;4.13;;;;;;;20.70;nan;96267.94;5097890;28;20218;-70
2023/06/22 00:28:10;;;;;;;13.63;5.43;;;;;;;20.69;nan;96266.31;5097269;28;20211;-69
2023/06/22 00:30:38;;;;;;;16.02;5.68;;;;;;;20.69;nan;96269.78;5097049;28;20211;-69
2023/06/22 00:33:07;;;;;;;15.77;6.60;;;;;;;20.64;nan;96274.25;5097026;28;20253;-72
2023/06/22 00:35:34;;;;;;;16.90;6.35;;;;;;;20.62;nan;96281.69;5097089;28;20202;-70
2023/06/22 00:38:02;;;;;;;11.52;5.30;;;;;;;20.66;nan;96278.31;5096670;28;20683;-72
2023/06/22 00:40:28;;;;;;;16.00;6.50;;;;;;;20.50;nan;96264.84;5097666;28;20280;-69
2023/06/22 00:42:55;;;;;;;15.30;6.30;;;;;;;20.49;nan;96263.22;5097007;28;20234;-73
2023/06/22 00:45:22;;;;;;;13.38;6.75;;;;;;;20.49;nan;96271.25;5097077;28;20218;-69
2023/06/22 00:47:51;;;;;;;7.68;3.92;;;;;;;20.32;nan;96275.72;5097065;28;20631;-70
2023/06/22 00:50:21;;;;;;;8.00;3.05;;;;;;;20.33;nan;96272.81;5097339;28;20222;-71
2023/06/22 00:52:51;;;;;;;3.78;2.47;;;;;;;20.34;nan;96271.78;5096596;28;20719;-69
2023/06/22 00:55:19;;;;;;;9.90;3.08;;;;;;;20.35;nan;96269.91;5097183;28;20242;-72
2023/06/22 00:57:47;;;;;;;6.30;2.58;;;;;;;20.28;nan;96271.91;5096544;28;20221;-72
2023/06/22 01:00:19;;;;;;;6.53;2.17;;;;;;;20.27;nan;96272.94;5097046;28;20203;-71
2023/06/22 01:02:46;;;;;;;8.40;2.60;;;;;;;20.28;nan;96274.56;5096819;28;20227;-69
2023/06/22 01:05:15;;;;;;;5.10;2.40;;;;;;;20.36;nan;96271.53;5097267;28;21096;-73
2023/06/22 01:07:52;;;;;;;5.65;2.75;;;;;;;20.38;nan;96272.91;5096099;28;20207;-73
2023/06/22 01:10:25;;;;;;;8.88;3.53;;;;;;;20.40;nan;96275.34;5095981;28;20209;-69
2023/06/22 01:12:56;;;;;;;7.05;2.50;;;;;;;20.25;nan;96275.03;5097194;28;20227;-70
2023/06/22 01:15:28;;;;;;;7.10;2.80;;;;;;;20.32;nan;96283.75;5096764;28;20195;-69
2023/06/22 01:17:57;;;;;;;6.22;2.85;;;;;;;20.29;nan;96282.38;5096315;28;21015;-71
2023/06/22 01:20:28;;;;;;;4.22;2.15;;;;;;;20.35;nan;96286.78;5097038;28;20210;-72
2023/06/22 01:23:06;;;;;;;7.47;2.65;;;;;;;20.39;nan;96284.44;5096222;28;20227;-71
2023/06/22 01:25:44;;;;;;;6.88;3.30;;;;;;;20.40;nan;96286.06;5097286;28;20226;-71
2023/06/22 01:28:23;;;;;;;6.80;3.08;;;;;;;20.36;nan;96287.59;5098443;28;21526;-69
2023/06/22 01:31:03;;;;;;;8.88;3.20;;;;;;;20.39;nan;96292.47;5100670;28;20199;-70
2023/06/22 01:33:30;;;;;;;5.63;3.10;;;;;;;20.18;nan;96293.09;5101080;28;20286;-69
2023/06/22 01:35:56;;;;;;;4.95;2.78;;;;;;;20.01;nan;96286.81;5101796;28;20205;-69
2023/06/22 01:38:23;;;;;;;5.40;2.60;;;;;;;20.04;nan;96283.69;5099945;28;20571;-70
2023/06/22 01:40:50;;;;;;;6.20;2.78;;;;;;;20.05;nan;96288.00;5100700;28;20206;-71
2023/06/22 01:43:17;;;;;;;5.07;2.65;;;;;;;19.95;nan;96285.06;5101301;28;20203;-70
2023/06/22 01:45:44;;;;;;;8.40;2.78;;;;;;;19.77;nan;96279.00;5100309;28;20948;-70
2023/06/22 01:48:12;;;;;;;7.68;3.05;;;;;;;19.93;nan;96279.13;5100074;28;20199;-72
2023/06/22 01:50:39;;;;;;;6.70;2.75;;;;;;;19.91;nan;96283.91;5101150;27;20199;-68
2023/06/22 01:53:06;;;;;;;4.90;2.55;;;;;;;19.82;nan;96274.59;5100575;28;20219;-69
2023/06/22 01:55:33;;;;;;;9.52;3.45;;;;;;;19.90;nan;96273.44;5099964;28;20225;-70
2023/06/22 01:57:59;;;;;;;6.03;3.20;;;;;;;19.86;nan;96264.25;5100041;28;20230;-73
2023/06/22 02:00:29;;;;;;;5.65;2.92;;;;;;;19.82;nan;96271.09;5100566;28;20210;-69
2023/06/22 02:03:00;;;;;;;8.02;3.88;;;;;;;19.86;nan;96270.41;5100232;28;20234;-69
2023/06/22 02:05:34;;;;;;;7.82;2.97;;;;;;;19.95;nan;96274.38;5100428;28;20226;-73
2023/06/22 02:08:07;;;;;;;6.95;3.42;;;;;;;20.01;nan;96269.94;5099822;28;20210;-73
2023/06/22 02:10:35;;;;;;;10.65;4.68;;;;;;;20.01;nan;96281.47;5099893;28;20298;-69
2023/06/22 02:13:05;;;;;;;7.85;3.90;;;;;;;19.97;nan;96284.84;5100031;28;20222;-73
2023/06/22 02:15:32;;;;;;;7.18;3.83;;;;;;;20.00;nan;96279.84;5100812;28;20206;-69
2023/06/22 02:17:58;;;;;;;14.27;3.55;;;;;;;19.97;nan;96291.03;5099551;28;20207;-72
2023/06/22 02:20:25;;;;;;;7.50;3.60;;;;;;;20.01;nan;96289.50;5099777;28;20203;-70
2023/06/22 02:22:53;;;;;;;11.88;4.32;;;;;;;19.94;nan;96279.97;5099763;28;20229;-72
2023/06/22 02:25:19;;;;;;;7.72;3.88;;;;;;;19.87;nan;96285.41;5100090;28;20250;-69
2023/06/22 02:27:46;;;;;;;5.25;2.85;;;;;;;19.87;nan;96288.06;5099052;28;20207;-72
2023/06/22 02:30:14;;;;;;;13.63;3.60;;;;;;;19.93;nan;96289.84;5099890;27;20199;-70
2023/06/22 02:32:43;;;;;;;5.80;3.13;;;;;;;19.97;nan;96288.34;5099841;28;20230;-70
2023/06/22 02:35:09;;;;;;;8.73;3.30;;;;;;;19.80;nan;96287.38;5098242;28;20228;-73
2023/06/22 02:37:38;;;;;;;7.68;4.10;;;;;;;19.77;nan;96271.78;5099473;28;20211;-69
2023/06/22 02:40:08;;;;;;;5.18;3.08;;;;;;;19.81;nan;96272.16;5098213;28;20199;-68
2023/06/22 02:42:35;;;;;;;13.18;3.85;;;;;;;19.66;nan;96263.78;5099111;28;20251;-69
2023/06/22 02:45:01;;;;;;;6.45;3.40;;;;;;;19.70;nan;96271.09;5100372;28;20242;-69
2023/06/22 02:47:28;;;;;;;7.40;3.28;;;;;;;19.79;nan;96277.75;5099120;28;20203;-70
2023/06/22 02:49:54;;;;;;;7.78;3.40;;;;;;;19.69;nan;96284.69;5098408;28;21165;-69
2023/06/22 02:52:21;;;;;;;6.78;3.22;;;;;;;19.72;nan;96285.03;5099732;28;20223;-69
2023/06/22 02:54:47;;;;;;;9.15;3.65;;;;;;;19.67;nan;96292.94;5099889;28;20203;-71
2023/06/22 02:57:15;;;;;;;8.70;3.42;;;;;;;19.75;nan;96286.44;5098594;28;20202;-72
2023/06/22 02:59:41;;;;;;;8.45;3.75;;;;;;;19.74;nan;96274.09;5099173;28;20549;-72
2023/06/22 03:02:08;;;;;;;6.25;2.88;;;;;;;19.68;nan;96278.53;5099430;28;20307;-69
2023/06/22 03:04:35;;;;;;;7.25;3.63;;;;;;;19.65;nan;96284.34;5099119;28;20198;-72
2023/06/22 03:07:01;;;;;;;6.38;3.13;;;;;;;19.62;nan;96279.44;5099273;28;20231;-71
2023/06/22 03:09:28;;;;;;;14.27;3.97;;;;;;;19.66;nan;96275.25;5098607;28;20222;-72
2023/06/22 03:11:55;;;;;;;6.10;2.90;;;;;;;19.67;nan;96282.25;5098921;28;20214;-73
2023/06/22 03:14:23;;;;;;;8.40;3.47;;;;;;;19.71;nan;96288.75;5098803;28;20211;-72
2023/06/22 03:16:49;;;;;;;8.13;3.33;;;;;;;19.58;nan;96283.63;5099245;28;20199;-69
2023/06/22 03:19:16;;;;;;;8.20;3.58;;;;;;;19.56;nan;96284.09;5098815;28;20199;-72
2023/06/22 03:21:42;;;;;;;9.00;4.32;;;;;;;19.50;nan;96290.38;5098583;28;20222;-71
2023/06/22 03:24:09;;;;;;;7.03;3.35;;;;;;;19.53;nan;96285.38;5098652;28;20821;-73
2023/06/22 03:26:35;;;;;;;6.50;3.40;;;;;;;19.57;nan;96291.09;5099101;28;20644;-69
2023/06/22 03:29:02;;;;;;;7.95;3.65;;;;;;;19.61;nan;96291.22;5097980;28;20207;-71
2023/06/22 03:31:30;;;;;;;9.45;4.32;;;;;;;19.70;nan;96297.84;5098165;28;20758;-73
2023/06/22 03:33:56;;;;;;;10.70;4.50;;;;;;;19.71;nan;96283.41;5098428;28;21129;-72
2023/06/22 03:36:23;;;;;;;7.13;3.80;;;;;;;19.72;nan;96279.69;5098850;28;20249;-72
2023/06/22 03:38:51;;;;;;;9.32;3.70;;;;;;;19.65;nan;96276.34;5097539;28;20199;-72
2023/06/22 03:41:17;;;;;;;6.90;3.80;;;;;;;19.55;nan;96274.44;5098265;28;20311;-73
2023/06/22 03:43:44;;;;;;;10.18;3.97;;;;;;;19.47;nan;96274.81;5098418;28;20671;-69
2023/06/22 03:46:10;;;;;;;9.82;3.10;;;;;;;19.38;nan;96278.84;5098291;28;20597;-72
2023/06/22 03:48:38;;;;;;;6.43;3.33;;;;;;;19.50;nan;96275.16;5098371;28;20203;-73
2023/06/22 03:51:05;;;;;;;6.20;2.90;;;;;;;19.42;nan;96285.38;5097880;28;20214;-71
2023/06/22 03:53:31;;;;;;;8.55;3.75;;;;;;;19.33;nan;96284.06;5097555;28;20211;-68
2023/06/22 03:55:58;;;;;;;9.80;3.70;;;;;;;19.60;nan;96281.56;5098008;28;20199;-72
2023/06/22 03:58:24;;;;;;;7.43;3.22;;;;;;;19.62;nan;96279.44;5098389;28;20297;-72
2023/06/22 04:00:53;;;;;;;6.20;3.58;;;;;;;19.59;nan;96269.22;5097738;28;20210;-69
2023/06/22 04:03:20;;;;;;;9.52;4.45;;;;;;;19.55;nan;96274.44;5097785;28;20199;-69
2023/06/22 04:05:48;;;;;;;8.65;3.38;;;;;;;19.63;nan;96275.75;5098581;28;20863;-69
2023/06/22 04:08:15;;;;;;;8.27;4.03;;;;;;;19.52;nan;96282.94;5097351;28;20583;-72
2023/06/22 04:10:41;;;;;;;18.73;3.70;;;;;;;19.44;nan;96281.41;5097434;28;20214;-69
2023/06/22 04:13:08;;;;;;;9.52;4.88;;;;;;;19.63;nan;96278.41;5097559;28;20233;-69
2023/06/22 04:15:34;;;;;;;9.45;3.88;;;;;;;19.72;nan;96279.69;5098203;28;20892;-73
2023/06/22 04:18:01;;;;;;;8.23;3.60;;;;;;;19.81;nan;96278.31;5097246;28;20203;-72
2023/06/22 04:20:27;;;;;;;10.00;3.63;;;;;;;19.84;nan;96277.03;5097730;28;20195;-73
2023/06/22 04:22:55;;;;;;;6.70;3.70;;;;;;;19.79;nan;96275.06;5097600;28;20222;-72
2023/06/22 04:25:22;;;;;;;10.77;3.78;;;;;;;19.66;nan;96269.13;5097420;28;20199;-70
2023/06/22 04:27:49;;;;;;;8.45;3.72;;;;;;;19.67;nan;96287.59;5097225;28;20214;-69
2023/06/22 04:30:16;;;;;;;13.02;4.53;;;;;;;19.64;nan;96296.09;5097134;28;20206;-72
2023/06/22 04:32:43;;;;;;;12.50;3.80;;;;;;;19.60;nan;96291.41;5096256;28;21382;-73
2023/06/22 04:35:10;;;;;;;10.93;3.90;;;;;;;19.80;nan;96278.53;5097512;28;20207;-69
2023/06/22 04:37:36;;;;;;;6.90;3.05;;;;;;;19.89;nan;96277.94;5096878;28;20206;-71
2023/06/22 04:40:05;;;;;;;8.00;2.67;;;;;;;19.93;nan;96275.66;5096620;28;20576;-71
2023/06/22 04:42:32;;;;;;;11.15;4.60;;;;;;;19.89;nan;96263.78;5097036;28;20322;-69
2023/06/22 04:44:58;;;;;;;6.03;3.00;;;;;;;20.13;nan;96266.22;5098018;28;20231;-69
2023/06/22 04:47:25;;;;;;;8.77;2.53;;;;;;;20.44;nan;96263.13;5096603;28;20219;-67
2023/06/22 04:49:51;;;;;;;4.85;2.55;;;;;;;20.72;nan;96263.16;5097083;28;20221;-67
2023/06/22 04:52:20;;;;;;;5.35;3.08;;;;;;;20.98;nan;96266.09;5097324;28;20237;-67
2023/06/22 04:54:48;;;;;;;5.75;2.97;;;;;;;21.22;nan;96268.44;5097497;28;20257;-67
2023/06/22 04:57:16;;;;;;;4.82;2.35;;;;;;;21.22;nan;96268.44;5096470;28;20286;-66
2023/06/22 04:59:44;;;;;;;9.35;4.05;;;;;;;21.42;nan;96284.03;5097052;28;20199;-66
2023/06/22 05:02:10;;;;;;;5.97;2.60;;;;;;;21.40;nan;96288.81;5096646;28;20243;-67
2023/06/22 05:04:38;;;;;;;5.75;2.90;;;;;;;21.42;nan;96279.47;5097223;28;20206;-67
2023/06/22 05:07:05;;;;;;;5.95;2.38;;;;;;;21.69;nan;96275.97;5096462;28;20227;-67
2023/06/22 05:09:33;;;;;;;8.68;3.78;;;;;;;21.79;nan;96270.75;5099815;28;20211;-67
2023/06/22 05:12:01;;;;;;;5.25;2.75;;;;;;;21.59;nan;96270.44;5101642;28;20295;-67
2023/06/22 05:14:29;;;;;;;6.35;2.90;;;;;;;21.30;nan;96265.34;5102291;28;20195;-67
2023/06/22 05:16:58;;;;;;;6.93;2.65;;;;;;;21.04;nan;96259.78;5101845;28;20206;-67
2023/06/22 05:19:25;;;;;;;7.35;3.03;;;;;;;20.85;nan;96251.13;5101910;28;20286;-67
2023/06/22 05:21:51;;;;;;;7.25;3.03;;;;;;;21.01;nan;96249.53;5101162;28;20223;-67
2023/06/22 05:24:18;;;;;;;7.47;2.70;;;;;;;20.96;nan;96244.91;5101732;28;20210;-67
2023/06/22 05:26:44;;;;;;;7.10;2.70;;;;;;;21.00;nan;96243.38;5100636;28;20223;-67
2023/06/22 05:29:10;;;;;;;5.85;2.83;;;;;;;21.03;nan;96242.09;5099958;28;20203;-67
2023/06/22 05:31:40;;;;;;;6.57;2.63;;;;;;;21.12;nan;96246.81;5097809;28;20226;-65
2023/06/22 05:34:06;;;;;;;4.60;3.03;;;;;;;21.15;nan;96240.94;5097953;28;20215;-65
2023/06/22 05:36:32;;;;;;;9.20;2.40;;;;;;;21.18;nan;96239.66;5097321;28;20206;-65
2023/06/22 05:38:59;;;;;;;9.18;2.85;;;;;;;21.26;nan;96237.41;5096336;28;20206;-65
2023/06/22 05:41:25;;;;;;;10.45;3.13;;;;;;;21.71;nan;96217.50;5096435;28;20225;-65
2023/06/22 05:43:52;;;;;;;4.50;2.53;;;;;;;21.90;nan;96218.06;5096540;28;20207;-65
2023/06/22 05:46:19;;;;;;;5.47;2.60;;;;;;;22.03;nan;96225.75;5096991;28;20223;-65
2023/06/22 05:48:47;;;;;;;6.20;2.85;;;;;;;22.23;nan;96222.25;5095699;28;20703;-65
2023/06/22 05:51:14;;;;;;;4.57;2.35;;;;;;;22.19;nan;96217.66;5096301;28;20226;-65
2023/06/22 05:53:40;;;;;;;4.88;2.33;;;;;;;22.25;nan;96214.78;5096587;28;20261;-65
2023/06/22 05:56:06;;;;;;;4.75;2.28;;;;;;;22.38;nan;96222.47;5096194;28;20347;-65
2023/06/22 05:58:33;;;;;;;4.47;2.13;;;;;;;22.40;nan;96220.38;5095895;28;20578;-65
2023/06/22 06:01:00;;;;;;;6.75;2.63;;;;;;;22.45;nan;96223.09;5096605;28;20663;-65
2023/06/22 06:03:28;;;;;;;5.00;2.42;;;;;;;22.22;nan;96228.72;5096084;28;20286;-65
2023/06/22 06:05:56;;;;;;;5.10;2.28;;;;;;;22.48;nan;96227.16;5096455;28;20203;-65
2023/06/22 06:08:22;;;;;;;7.00;2.42;;;;;;;22.13;nan;96216.78;5096300;28;20655;-65
2023/06/22 06:10:49;;;;;;;6.30;2.28;;;;;;;22.24;nan;96226.56;5096158;28;20204;-65
2023/06/22 06:13:16;;;;;;;3.22;1.63;;;;;;;22.19;nan;96217.66;5095947;28;20219;-65
2023/06/22 06:15:42;;;;;;;4.63;2.10;;;;;;;22.41;nan;96211.22;5101394;28;20211;-65
2023/06/22 06:18:08;;;;;;;3.88;2.22;;;;;;;22.36;nan;96213.84;5099850;28;20213;-65
2023/06/22 06:20:35;;;;;;;6.80;2.25;;;;;;;22.51;nan;96219.41;5099716;28;20214;-64
2023/06/22 06:23:03;;;;;;;6.85;2.05;;;;;;;22.68;nan;96222.81;5100256;28;20229;-65
2023/06/22 06:25:29;;;;;;;3.20;1.70;;;;;;;22.58;nan;96216.53;5101129;28;20210;-68
2023/06/22 06:27:56;;;;;;;5.70;2.03;;;;;;;22.62;nan;96223.84;5098829;28;20222;-69
2023/06/22 06:30:23;;;;;;;3.75;1.83;;;;;;;22.69;nan;96213.72;5100354;28;20207;-69
2023/06/22 06:32:50;;;;;;;3.28;1.88;;;;;;;22.79;nan;96211.13;5099791;28;20223;-69
2023/06/22 06:35:17;;;;;;;3.85;2.10;;;;;;;22.78;nan;96212.19;5098793;27;20210;-70
2023/06/22 06:37:45;;;;;;;4.85;2.25;;;;;;;22.96;nan;96217.22;5099004;27;20199;-69
2023/06/22 06:40:14;;;;;;;5.32;1.95;;;;;;;22.97;nan;96211.59;5100086;28;20203;-69
2023/06/22 06:42:44;;;;;;;4.22;1.92;;;;;;;22.98;nan;96212.41;5099354;28;20420;-69
2023/06/22 06:45:11;;;;;;;10.60;2.75;;;;;;;23.04;nan;96200.66;5099698;28;20294;-69
2023/06/22 06:47:37;;;;;;;5.55;1.92;;;;;;;23.12;nan;96209.09;5099033;28;20219;-68
2023/06/22 06:50:05;;;;;;;5.38;2.15;;;;;;;23.28;nan;96199.25;5099610;27;20214;-68
2023/06/22 06:52:32;;;;;;;6.07;2.03;;;;;;;23.35;nan;96198.00;5099300;28;20219;-69
2023/06/22 06:54:58;;;;;;;5.75;2.30;;;;;;;23.44;nan;96207.22;5099227;28;20290;-69
2023/06/22 06:57:28;;;;;;;7.35;2.40;;;;;;;23.65;nan;96193.66;5097771;28;20199;-68
2023/06/22 06:59:55;;;;;;;6.38;2.20;;;;;;;23.61;nan;96187.16;5099098;28;20299;-69
2023/06/22 07:02:21;;;;;;;6.25;2.17;;;;;;;23.77;nan;96191.59;5098766;28;20233;-69
2023/06/22 07:04:48;;;;;;;5.90;2.63;;;;;;;23.64;nan;96189.34;5098666;28;20577;-69
2023/06/22 07:07:15;;;;;;;3.60;1.90;;;;;;;23.95;nan;96191.16;5097843;28;20219;-68
2023/06/22 07:09:41;;;;;;;4.35;1.92;;;;;;;23.98;nan;96182.56;5098421;28;20444;-68
2023/06/22 07:12:08;;;;;;;8.40;2.42;;;;;;;23.98;nan;96183.41;5098449;28;20219;-67
2023/06/22 07:14:36;;;;;;;4.15;2.03;;;;;;;24.17;nan;96194.53;5098614;28;20397;-69
2023/06/22 07:17:03;;;;;;;4.18;2.13;;;;;;;24.54;nan;96184.47;5098530;28;20203;-68
2023/06/22 07:19:30;;;;;;;3.45;1.80;;;;;;;24.63;nan;96192.59;5097649;28;20390;-68
2023/06/22 07:21:56;;;;;;;3.22;1.67;;;;;;;24.56;nan;96186.63;5098307;28;20296;-69
2023/06/22 07:24:23;;;;;;;3.13;1.75;;;;;;;24.80;nan;96181.59;5098049;28;20210;-69
2023/06/22 07:26:50;;;;;;;8.00;3.30;;;;;;;24.74;nan;96183.44;5097152;27;20599;-68
2023/06/22 07:29:16;;;;;;;5.25;1.85;;;;;;;24.58;nan;96173.72;5098542;28;20220;-68
2023/06/22 07:31:44;;;;;;;5.00;2.40;;;;;;;24.73;nan;96171.06;5097586;28;20227;-69
2023/06/22 07:34:11;;;;;;;8.45;2.45;;;;;;;24.69;nan;96174.53;5097479;28;20203;-70
2023/06/22 07:36:37;;;;;;;5.88;2.17;;;;;;;24.79;nan;96175.38;5097282;28;20199;-67
2023/06/22 07:39:04;;;;;;;5.10;2.55;;;;;;;24.91;nan;96173.25;5097353;28;20199;-69
2023/06/22 07:41:31;;;;;;;4.38;2.13;;;;;;;24.91;nan;96167.03;5097242;28;20259;-69
2023/06/22 07:43:58;;;;;;;7.20;2.83;;;;;;;25.14;nan;96170.09;5097628;28;20207;-68
2023/06/22 07:46:24;;;;;;;8.52;2.42;;;;;;;25.34;nan;96178.16;5097435;28;20206;-69
2023/06/22 07:48:52;;;;;;;11.02;2.65;;;;;;;25.42;nan;96166.81;5096894;28;20415;-69
2023/06/22 07:51:19;;;;;;;5.97;1.80;;;;;;;25.43;nan;96171.97;5096952;28;20221;-68
2023/06/22 07:53:45;;;;;;;4.25;2.28;;;;;;;25.57;nan;96172.22;5097624;28;20218;-69
2023/06/22 07:56:12;;;;;;;6.70;1.95;;;;;;;25.83;nan;96172.75;5097645;28;20210;-69
2023/06/22 07:58:38;;;;;;;7.90;2.40;;;;;;;25.71;nan;96184.13;5096588;28;20214;-69
2023/06/22 08:01:05;;;;;;;5.85;2.05;;;;;;;25.70;nan;96188.72;5097271;28;20210;-68
2023/06/22 08:03:32;;;;;;;6.93;1.70;;;;;;;26.00;nan;96177.84;5097040;28;20734;-70
2023/06/22 08:06:00;;;;;;;4.38;2.22;;;;;;;25.93;nan;96182.75;5097626;28;20199;-68
2023/06/22 08:08:26;;;;;;;5.13;2.20;;;;;;;26.00;nan;96184.03;5096693;28;20703;-69
2023/06/22 08:10:53;;;;;;;5.97;2.13;;;;;;;26.28;nan;96183.44;5097683;28;20555;-69
2023/06/22 08:13:19;;;;;;;5.68;2.15;;;;;;;26.37;nan;96178.31;5096697;28;20203;-69
2023/06/22 08:15:46;;;;;;;5.25;2.50;;;;;;;26.31;nan;96182.91;5096606;28;20291;-70
2023/06/22 08:18:12;;;;;;;5.28;2.33;;;;;;;26.33;nan;96178.00;5097525;28;20207;-68
2023/06/22 08:20:38;;;;;;;4.50;1.90;;;;;;;26.43;nan;96177.22;5097674;28;20207;-70
2023/06/22 08:23:06;;;;;;;4.90;1.77;;;;;;;26.13;nan;96171.88;5097178;28;20235;-68
2023/06/22 08:25:33;;;;;;;9.07;2.85;;;;;;;26.15;nan;96170.50;5097643;28;20295;-68
2023/06/22 08:28:00;;;;;;;4.47;1.92;;;;;;;26.33;nan;96169.09;5097431;28;20719;-70
2023/06/22 08:30:26;;;;;;;5.45;2.20;;;;;;;26.65;nan;96157.59;5097150;28;20210;-69
2023/06/22 08:32:53;;;;;;;3.75;1.95;;;;;;;26.30;nan;96156.97;5097473;28;20227;-69
2023/06/22 08:35:20;;;;;;;5.38;2.58;;;;;;;26.94;nan;96160.44;5097577;28;20206;-68
2023/06/22 08:37:51;;;;;;;5.18;2.25;;;;;;;26.97;nan;96157.19;5094970;28;20203;-69
2023/06/22 08:40:20;;;;;;;4.65;2.88;;;;;;;26.90;nan;96157.47;5096734;28;20199;-70
2023/06/22 08:42:47;;;;;;;6.05;2.50;;;;;;;27.02;nan;96152.56;5097054;28;20227;-70
2023/06/22 08:45:14;;;;;;;8.82;2.78;;;;;;;27.33;nan;96159.34;5096437;28;20485;-69
2023/06/22 08:47:41;;;;;;;4.75;2.20;;;;;;;27.10;nan;96157.38;5094409;28;20714;-69
2023/06/22 08:50:09;;;;;;;7.05;2.60;;;;;;;27.35;nan;96144.44;5096839;28;20683;-69
2023/06/22 08:52:36;;;;;;;6.32;2.70;;;;;;;27.31;nan;96137.97;5096399;28;20222;-69
2023/06/22 08:55:02;;;;;;;7.75;2.38;;;;;;;27.42;nan;96142.22;5096147;28;20596;-69
2023/06/22 08:57:32;;;;;;;6.43;2.08;;;;;;;27.42;nan;96144.13;5096229;28;20199;-70
2023/06/22 08:59:59;;;;;;;6.70;2.08;;;;;;;27.38;nan;96143.06;5096465;28;20206;-70
2023/06/22 09:02:25;;;;;;;7.60;3.17;;;;;;;27.35;nan;96144.44;5095895;28;20223;-70
2023/06/22 09:04:55;;;;;;;9.00;2.45;;;;;;;27.64;nan;96137.19;5096749;28;20272;-69
2023/06/22 09:07:23;;;;;;;3.97;2.30;;;;;;;27.54;nan;96137.25;5095595;28;20315;-69
2023/06/22 09:09:50;;;;;;;8.57;2.88;;;;;;;27.77;nan;96136.50;5096303;28;20610;-70
2023/06/22 09:12:16;;;;;;;8.65;2.60;;;;;;;28.05;nan;96124.84;5096510;28;20219;-69
2023/06/22 09:14:44;;;;;;;5.75;2.40;;;;;;;28.20;nan;96130.13;5096198;28;20656;-68
2023/06/22 09:17:10;;;;;;;6.30;2.42;;;;;;;28.27;nan;96125.94;5095830;28;20817;-69
2023/06/22 09:19:37;;;;;;;3.60;1.98;;;;;;;28.26;nan;96134.38;5095530;28;20210;-69
2023/06/22 09:22:05;;;;;;;4.25;2.25;;;;;;;28.45;nan;96126.00;5095961;28;20223;-68
2023/06/22 09:24:32;;;;;;;8.02;2.75;;;;;;;28.41;nan;96133.09;5096096;28;20354;-68
2023/06/22 09:26:58;;;;;;;6.03;2.55;;;;;;;28.57;nan;96133.69;5095779;28;20229;-68
2023/06/22 09:29:25;;;;;;;5.55;1.85;;;;;;;28.61;nan;96132.00;5095230;28;20206;-68
2023/06/22 09:31:53;;;;;;;5.80;2.63;;;;;;;28.86;nan;96129.78;5095791;28;20234;-68
2023/06/22 09:34:20;;;;;;;5.45;2.60;;;;;;;28.93;nan;96134.84;5096413;28;20203;-69
2023/06/22 09:36:46;;;;;;;6.38;2.58;;;;;;;29.04;nan;96134.41;5095512;28;20654;-70
2023/06/22 09:39:13;;;;;;;7.30;3.13;;;;;;;29.06;nan;96134.91;5095401;28;20203;-69
2023/06/22 09:41:39;;;;;;;5.57;2.53;;;;;;;28.86;nan;96124.38;5095476;28;20234;-69
2023/06/22 09:44:06;;;;;;;5.03;2.08;;;;;;;28.88;nan;96122.16;5095859;28;20199;-68
2023/06/22 09:46:32;;;;;;;3.45;2.22;;;;;;;29.09;nan;96128.91;5095919;28;20210;-68
2023/06/22 09:49:00;;;;;;;5.70;2.78;;;;;;;29.25;nan;96135.69;5096332;28;20306;-69
2023/06/22 09:51:26;;;;;;;7.28;3.05;;;;;;;29.45;nan;96138.91;5100399;28;20620;-69
2023/06/22 09:53:53;;;;;;;5.07;2.40;;;;;;;29.62;nan;96133.72;5099887;28;20208;-69
2023/06/22 09:56:20;;;;;;;3.22;2.22;;;;;;;29.79;nan;96142.16;5099151;28;20199;-69
2023/06/22 09:58:50;;;;;;;7.70;3.22;;;;;;;29.68;nan;96143.41;5099667;28;20241;-68
2023/06/22 10:01:16;;;;;;;6.10;2.50;;;;;;;29.94;nan;96152.75;5099757;28;20219;-69
2023/06/22 10:03:43;;;;;;;3.72;1.98;;;;;;;30.15;nan;96154.78;5099826;27;20647;-70
2023/06/22 10:06:11;;;;;;;6.32;2.45;;;;;;;29.97;nan;96163.03;5099419;28;20207;-69
2023/06/22 10:08:37;;;;;;;5.75;2.38;;;;;;;29.81;nan;96165.19;5099030;28;20596;-69
2023/06/22 10:11:04;;;;;;;5.13;2.30;;;;;;;29.76;nan;96168.00;5099714;28;20210;-70
2023/06/22 10:13:30;;;;;;;9.93;2.78;;;;;;;29.63;nan;96157.91;5099706;27;20214;-69
2023/06/22 10:15:57;;;;;;;5.90;2.25;;;;;;;29.82;nan;96161.34;5099589;28;20606;-69
2023/06/22 10:18:23;;;;;;;4.60;2.33;;;;;;;30.10;nan;96154.88;5099062;28;20214;-69
2023/06/22 10:20:51;;;;;;;9.07;2.65;;;;;;;29.95;nan;96147.03;5099562;28;20207;-69
2023/06/22 10:23:20;;;;;;;5.32;2.25;;;;;;;30.17;nan;96143.63;5099015;28;20273;-68
2023/06/22 10:25:46;;;;;;;5.07;2.40;;;;;;;29.77;nan;96153.31;5099260;28;20207;-69
2023/06/22 10:28:13;;;;;;;5.18;2.35;;;;;;;29.89;nan;96150.16;5098959;28;20254;-69
2023/06/22 10:30:41;;;;;;;8.60;2.45;;;;;;;30.00;nan;96149.63;5098681;28;20214;-69
2023/06/22 10:33:07;;;;;;;6.55;2.83;;;;;;;29.95;nan;96147.03;5099241;28;20219;-69
2023/06/22 10:35:34;;;;;;;9.50;2.38;;;;;;;29.91;nan;96154.16;5098673;27;20203;-70
2023/06/22 10:38:00;;;;;;;7.32;3.08;;;;;;;29.81;nan;96146.19;5098112;28;20199;-69
2023/06/22 10:40:28;;;;;;;5.63;2.78;;;;;;;29.97;nan;96141.31;5098803;28;20288;-69
2023/06/22 10:42:55;;;;;;;6.35;2.85;;;;;;;30.49;nan;96133.50;5099145;28;20223;-69
2023/06/22 10:45:21;;;;;;;11.32;2.95;;;;;;;30.57;nan;96127.31;5099047;28;20199;-69
2023/06/22 10:47:48;;;;;;;6.70;2.58;;;;;;;30.59;nan;96122.38;5098447;28;20223;-69
2023/06/22 10:50:15;;;;;;;6.15;1.67;;;;;;;30.65;nan;96123.88;5098485;28;20659;-69
2023/06/22 10:52:42;;;;;;;5.55;2.15;;;;;;;30.38;nan;96123.88;5098358;28;20229;-70
2023/06/22 10:55:09;;;;;;;5.13;2.65;;;;;;;30.85;nan;96135.13;5098657;28;20680;-69
2023/06/22 10:57:38;;;;;;;5.88;3.45;;;;;;;31.19;nan;96135.47;5098346;28;20211;-69
2023/06/22 11:00:07;;;;;;;6.97;2.67;;;;;;;31.05;nan;96135.50;5097873;28;20226;-69
2023/06/22 11:02:33;;;;;;;4.85;2.17;;;;;;;31.16;nan;96117.84;5098518;28;20226;-69
2023/06/22 11:05:00;;;;;;;5.05;2.47;;;;;;;31.20;nan;96113.38;5098684;28;20213;-69
2023/06/22 11:07:28;;;;;;;6.28;2.47;;;;;;;31.31;nan;96108.47;5097751;28;20594;-69
2023/06/22 11:09:55;;;;;;;5.03;2.35;;;;;;;31.21;nan;96115.00;5098447;28;20694;-69
2023/06/22 11:12:21;;;;;;;7.22;2.58;;;;;;;31.20;nan;96102.47;5099172;27;20223;-69
2023/06/22 11:14:51;;;;;;;6.07;2.60;;;;;;;31.54;nan;96102.75;5098352;28;20203;-69
2023/06/22 11:17:17;;;;;;;4.72;2.53;;;;;;;31.85;nan;96100.81;5097664;28;20241;-70
2023/06/22 11:19:44;;;;;;;6.68;2.85;;;;;;;31.74;nan;96096.78;5098325;28;20712;-69
2023/06/22 11:22:11;;;;;;;7.75;2.45;;;;;;;32.06;nan;96093.75;5097959;28;20242;-69
2023/06/22 11:24:37;;;;;;;5.15;1.80;;;;;;;32.09;nan;96096.66;5097988;28;20686;-69
2023/06/22 11:27:04;;;;;;;8.80;2.15;;;;;;;32.11;nan;96089.75;5097335;28;20636;-70
2023/06/22 11:29:31;;;;;;;11.48;2.95;;;;;;;32.65;nan;96099.41;5097243;28;20227;-70
2023/06/22 11:31:59;;;;;;;10.07;2.22;;;;;;;32.45;nan;96103.50;5096959;27;20350;-70
2023/06/22 11:34:26;;;;;;;13.20;2.50;;;;;;;31.88;nan;96092.84;5097685;28;20203;-69
2023/06/22 11:36:52;;;;;;;4.63;2.00;;;;;;;31.52;nan;96091.38;5098440;28;20210;-69
2023/06/22 11:39:19;;;;;;;4.32;1.88;;;;;;;31.61;nan;96076.66;5097422;28;20192;-69
2023/06/22 11:41:45;;;;;;;5.35;1.92;;;;;;;31.62;nan;96066.59;5098176;28;20219;-70
2023/06/22 11:44:11;;;;;;;10.63;2.90;;;;;;;31.68;nan;96068.03;5097638;28;20206;-69
2023/06/22 11:46:38;;;;;;;4.28;2.42;;;;;;;31.34;nan;96058.81;5096263;28;20223;-69
2023/06/22 11:49:06;;;;;;;7.72;2.17;;;;;;;31.90;nan;96062.53;5096047;27;20230;-69